Relevés horaires Matro (Suisse)


Relevés horaires à Matro - Samedi 13 Sept. 2014
Heure UTC1 Température [°C] Vent [km/h] Hum. [%] Pres.4 [hPa] Visi. [Km] Nébu. [octa] Préc.5 [mm] Cond.
2m. Res. Ros. Dir.2 Vit. Moy. Raf.3
23:00 6.8 2.6 -1.4 NNO 27.8 27.8 35.2 56 850(-0.6/3h) -- -- -- --
22:00 6.7 2.6 -1.7 NNO 25.9 25.9 33.3 55 850(-0.2/3h) -- -- -- --
21:00 6.2 1.8 -0.6 NNO 27.8 38.9 51.9 62 850(0.8/3h) -- -- -- --
20:00 6.5 1.4 -0.2 NNO 38.9 38.9 51.9 62 850(0.9/3h) -- -- -- --
19:00 6.7 2.2 0.7 NNO 31.5 38.9 51.9 65 850(1.2/3h) -- -- -- --
18:00 7.1 1.9 1.6 NNO 42.6 44.4 59.3 68 850(0.7/3h) -- -- -- --
17:00 8.0 3.5 1.1 NNO 37.0 40.7 59.3 62 850(0.6/3h) -- -- -- --
16:00 8.3 3.6 1.0 NNO 42.6 42.6 51.9 60 850(0.1/3h) -- -- -- --
15:00 8.7 4 -0.3 NNO 44.4 44.4 59.3 53 850(-0.2/3h) -- -- -- --
14:00 8.7 4.3 -1.4 NNO 38.9 40.7 59.3 49 850(-0.2/3h) -- -- -- --
13:00 8.9 5 0.2 NNO 31.5 31.5 50.0 54 850(0.2/3h) -- -- -- --
12:00 8.7 5.3 0.9 NNO 24.1 48.2 66.7 58 850(0.4/3h) -- -- -- --
11:00 8.2 4.4 0.1 NO 27.8 40.7 57.4 57 850(0.5/3h) -- -- -- --
10:00 7.6 2.5 0.4 NNO 44.4 42.6 61.1 60 850(0.7/3h) -- -- -- --
09:00 7.0 3.2 1.0 NNO 24.1 48.2 66.7 66 850(1.1/3h) -- -- -- --
08:00 6.7 2.8 1.0 NNO 24.1 38.9 55.6 67 850(1.3/3h) -- -- -- --
07:00 6.2 0.7 0.4 NNO 42.6 48.2 66.7 66 850(1.1/3h) -- -- -- --
06:00 6.0 0.2 0.3 NNO 46.3 48.2 66.7 67 850(0.7/3h) -- -- -- --
05:00 5.8 0.1 0.2 NO 44.4 44.4 66.7 67 850(0.3/3h) -- -- -- --
04:00 5.6 0.2 0.6 NNO 38.9 38.9 57.4 70 850(-0.2/3h) -- -- -- --
03:00 5.7 0.4 0.6 NNO 37.0 44.4 63.0 70 850(-0.5/3h) -- -- -- --
02:00 5.5 0 0.4 NNO 38.9 37.0 51.9 70 850(-0.5/3h) -- -- -- --
01:00 5.3 0.8 0.7 NO 25.9 29.6 42.6 72 850(-0.1/3h) -- -- -- --
00:00 4.6 0.3 0.6 NO 22.2 31.5 44.4 75 850(0.2/3h) -- -- -- --

1 Coordinated Universal Time. Actuellement il est 04:00 locale et 02:00 UTC.

2 Le vent souffle depuis la direction indiquée vers la direction oposée.

3 Les rafales max. sont disponible 40 min après l'heure du relevé.

4 Pour les stations d'altitude (plus de 600m) le géopotentiel du niveau le plus proche de la pression obligatoire est indiqué.

5 Les stations disposant d'un diffuseur peuvent indiquer "trace". Cela signifie que des précipitations ont touchés le sol mais que la quantité est inférieure à 0.1 mm.

Copyright

Les données affichées sur cette page sont la propriété exclusive de Météo Suisse.

Récapitulatif de la journée
Température [°C] Vent [km/h] Ensoleillement4 [h] Precipitations totale5 [mm] Pression [Hpa]
Min1 Max.2 Moy.3 Max. Min Max.
4.3 9.1 39.8 66.7 11 h 6 min 0 850.0 850.0

1 Température minimale relevée entre 18:00 UTC la veille et 18:00 UTC le jour donné.

2 Température maximale relevée entre 06:00 UTC le jour donné et 06:00 UTC le lendemain.

3 Vent moyen de la journée basé sur les relevés horaires.

4 Ensoleillement en heures relevé entre 06:00 UTC la veille et 06:00 UTC le jour donné.

5 Précipitations totales tombées entre 06:00 UTC la jour donné et 06:00 UTC le lendemain.

Graphiques horaires